Terminal Aerodrome Forecast
Issued by NWS

Home | Current Version | Previous Version | Text Only | Print | Product List | Glossary Off
Versions: 1 2 3 4 5 6 7 8 9 10 11 12 13 14 15

000
FTUS43 KMPX 210520
TAFRWF
TAF
KRWF 210520Z 2106/2206 VRB04KT P6SM FEW250
     FM210800 14004KT P6SM SCT200
     FM211500 15012KT P6SM VCSH SCT050 BKN110
     FM211800 16012G18KT P6SM OVC050
     FM220000 15006KT P6SM BKN060=

USA.gov is the U.S. government's official web portal to all federal, state and local government web resources and services.